sensor_id;sensor_type;location;lat;lon;timestamp;P1;durP1;ratioP1;P2;durP2;ratioP2
20731;SDS011;10527;52.124;5.196;2023-02-03T00:00:03;8.47;;;2.03;;
20731;SDS011;10527;52.124;5.196;2023-02-03T00:02:33;9.60;;;2.27;;
20731;SDS011;10527;52.124;5.196;2023-02-03T00:05:05;8.97;;;2.40;;
20731;SDS011;10527;52.124;5.196;2023-02-03T00:07:36;7.20;;;2.40;;
20731;SDS011;10527;52.124;5.196;2023-02-03T00:10:05;13.30;;;2.30;;
20731;SDS011;10527;52.124;5.196;2023-02-03T00:12:33;7.17;;;1.90;;
20731;SDS011;10527;52.124;5.196;2023-02-03T00:15:00;11.57;;;2.10;;
20731;SDS011;10527;52.124;5.196;2023-02-03T00:17:27;6.67;;;2.10;;
20731;SDS011;10527;52.124;5.196;2023-02-03T00:19:56;6.23;;;1.73;;
20731;SDS011;10527;52.124;5.196;2023-02-03T00:22:23;7.27;;;1.90;;
20731;SDS011;10527;52.124;5.196;2023-02-03T00:24:50;7.50;;;2.57;;
20731;SDS011;10527;52.124;5.196;2023-02-03T00:27:20;8.13;;;2.50;;
20731;SDS011;10527;52.124;5.196;2023-02-03T00:29:46;12.53;;;2.23;;
20731;SDS011;10527;52.124;5.196;2023-02-03T00:32:13;8.77;;;2.03;;
20731;SDS011;10527;52.124;5.196;2023-02-03T00:34:40;10.70;;;2.50;;
20731;SDS011;10527;52.124;5.196;2023-02-03T00:37:07;11.67;;;3.23;;
20731;SDS011;10527;52.124;5.196;2023-02-03T00:39:37;10.67;;;2.07;;
20731;SDS011;10527;52.124;5.196;2023-02-03T00:42:07;10.43;;;2.37;;
20731;SDS011;10527;52.124;5.196;2023-02-03T00:44:34;6.70;;;2.13;;
20731;SDS011;10527;52.124;5.196;2023-02-03T00:47:00;10.47;;;2.57;;
20731;SDS011;10527;52.124;5.196;2023-02-03T00:49:27;10.30;;;2.20;;
20731;SDS011;10527;52.124;5.196;2023-02-03T00:51:54;6.87;;;2.23;;
20731;SDS011;10527;52.124;5.196;2023-02-03T00:54:21;7.73;;;2.00;;
20731;SDS011;10527;52.124;5.196;2023-02-03T00:56:48;8.43;;;2.07;;
20731;SDS011;10527;52.124;5.196;2023-02-03T00:59:15;8.23;;;2.30;;
20731;SDS011;10527;52.124;5.196;2023-02-03T01:01:41;9.83;;;2.40;;
20731;SDS011;10527;52.124;5.196;2023-02-03T01:04:08;8.77;;;2.30;;
20731;SDS011;10527;52.124;5.196;2023-02-03T01:06:35;9.43;;;2.13;;
20731;SDS011;10527;52.124;5.196;2023-02-03T01:09:02;7.70;;;2.30;;
20731;SDS011;10527;52.124;5.196;2023-02-03T01:11:29;6.47;;;1.77;;
20731;SDS011;10527;52.124;5.196;2023-02-03T01:13:57;9.83;;;2.07;;
20731;SDS011;10527;52.124;5.196;2023-02-03T01:16:27;8.20;;;2.43;;
20731;SDS011;10527;52.124;5.196;2023-02-03T01:18:56;6.87;;;1.90;;
20731;SDS011;10527;52.124;5.196;2023-02-03T01:21:23;5.80;;;2.10;;
20731;SDS011;10527;52.124;5.196;2023-02-03T01:23:53;7.87;;;2.13;;
20731;SDS011;10527;52.124;5.196;2023-02-03T01:26:22;6.40;;;1.90;;
20731;SDS011;10527;52.124;5.196;2023-02-03T01:28:56;9.33;;;2.00;;
20731;SDS011;10527;52.124;5.196;2023-02-03T01:31:26;6.57;;;2.43;;
20731;SDS011;10527;52.124;5.196;2023-02-03T01:33:55;4.83;;;1.60;;
20731;SDS011;10527;52.124;5.196;2023-02-03T01:36:23;9.03;;;1.90;;
20731;SDS011;10527;52.124;5.196;2023-02-03T01:38:53;5.97;;;1.70;;
20731;SDS011;10527;52.124;5.196;2023-02-03T01:41:21;4.63;;;1.50;;
20731;SDS011;10527;52.124;5.196;2023-02-03T01:43:53;9.63;;;2.20;;
20731;SDS011;10527;52.124;5.196;2023-02-03T01:49:02;12.30;;;1.60;;
20731;SDS011;10527;52.124;5.196;2023-02-03T01:51:46;9.50;;;1.80;;
20731;SDS011;10527;52.124;5.196;2023-02-03T01:54:18;13.30;;;2.30;;
20731;SDS011;10527;52.124;5.196;2023-02-03T01:56:56;7.07;;;1.80;;
20731;SDS011;10527;52.124;5.196;2023-02-03T01:59:31;9.57;;;2.17;;
20731;SDS011;10527;52.124;5.196;2023-02-03T02:02:00;9.03;;;1.73;;
20731;SDS011;10527;52.124;5.196;2023-02-03T02:04:33;8.10;;;1.70;;
20731;SDS011;10527;52.124;5.196;2023-02-03T02:07:14;10.87;;;3.00;;
20731;SDS011;10527;52.124;5.196;2023-02-03T02:09:42;6.57;;;1.40;;
20731;SDS011;10527;52.124;5.196;2023-02-03T02:12:11;9.83;;;1.87;;
20731;SDS011;10527;52.124;5.196;2023-02-03T02:14:38;4.63;;;1.37;;
20731;SDS011;10527;52.124;5.196;2023-02-03T02:20:17;10.73;;;2.50;;
20731;SDS011;10527;52.124;5.196;2023-02-03T02:26:01;7.50;;;1.40;;
20731;SDS011;10527;52.124;5.196;2023-02-03T02:35:03;4.93;;;1.13;;
20731;SDS011;10527;52.124;5.196;2023-02-03T02:37:37;7.07;;;1.50;;
20731;SDS011;10527;52.124;5.196;2023-02-03T02:43:33;6.87;;;1.50;;
20731;SDS011;10527;52.124;5.196;2023-02-03T02:46:47;5.17;;;0.97;;
20731;SDS011;10527;52.124;5.196;2023-02-03T02:52:03;5.50;;;1.30;;
20731;SDS011;10527;52.124;5.196;2023-02-03T02:54:36;4.67;;;0.80;;
20731;SDS011;10527;52.124;5.196;2023-02-03T02:57:10;3.00;;;0.90;;
20731;SDS011;10527;52.124;5.196;2023-02-03T02:59:39;5.03;;;1.10;;
20731;SDS011;10527;52.124;5.196;2023-02-03T03:02:07;7.37;;;1.23;;
20731;SDS011;10527;52.124;5.196;2023-02-03T03:04:39;4.83;;;1.23;;
20731;SDS011;10527;52.124;5.196;2023-02-03T03:07:27;4.70;;;0.90;;
20731;SDS011;10527;52.124;5.196;2023-02-03T03:09:59;5.73;;;0.93;;
20731;SDS011;10527;52.124;5.196;2023-02-03T03:12:36;4.10;;;0.90;;
20731;SDS011;10527;52.124;5.196;2023-02-03T03:15:17;5.63;;;1.17;;
20731;SDS011;10527;52.124;5.196;2023-02-03T03:20:56;4.10;;;0.93;;
20731;SDS011;10527;52.124;5.196;2023-02-03T03:23:32;5.20;;;1.33;;
20731;SDS011;10527;52.124;5.196;2023-02-03T03:26:09;4.03;;;0.87;;
20731;SDS011;10527;52.124;5.196;2023-02-03T03:29:27;5.10;;;1.00;;
20731;SDS011;10527;52.124;5.196;2023-02-03T03:32:00;4.77;;;1.03;;
20731;SDS011;10527;52.124;5.196;2023-02-03T03:34:28;3.13;;;1.07;;
20731;SDS011;10527;52.124;5.196;2023-02-03T03:37:00;5.27;;;1.27;;
20731;SDS011;10527;52.124;5.196;2023-02-03T03:42:32;2.40;;;1.23;;
20731;SDS011;10527;52.124;5.196;2023-02-03T03:45:18;5.90;;;1.10;;
20731;SDS011;10527;52.124;5.196;2023-02-03T03:48:15;6.20;;;1.40;;
20731;SDS011;10527;52.124;5.196;2023-02-03T03:50:52;4.97;;;1.20;;
20731;SDS011;10527;52.124;5.196;2023-02-03T03:53:27;4.50;;;1.00;;
20731;SDS011;10527;52.124;5.196;2023-02-03T03:55:59;5.60;;;1.60;;
20731;SDS011;10527;52.124;5.196;2023-02-03T03:58:31;8.13;;;1.20;;
20731;SDS011;10527;52.124;5.196;2023-02-03T04:01:01;4.23;;;0.90;;
20731;SDS011;10527;52.124;5.196;2023-02-03T04:03:36;8.20;;;1.33;;
20731;SDS011;10527;52.124;5.196;2023-02-03T04:06:09;4.63;;;1.00;;
20731;SDS011;10527;52.124;5.196;2023-02-03T04:08:40;6.23;;;1.53;;
20731;SDS011;10527;52.124;5.196;2023-02-03T04:11:07;3.20;;;0.80;;
20731;SDS011;10527;52.124;5.196;2023-02-03T04:13:34;4.33;;;0.83;;
20731;SDS011;10527;52.124;5.196;2023-02-03T04:16:01;5.03;;;1.00;;
20731;SDS011;10527;52.124;5.196;2023-02-03T04:18:27;4.13;;;1.07;;
20731;SDS011;10527;52.124;5.196;2023-02-03T04:20:54;3.17;;;0.80;;
20731;SDS011;10527;52.124;5.196;2023-02-03T04:23:21;3.30;;;1.17;;
20731;SDS011;10527;52.124;5.196;2023-02-03T04:25:51;3.60;;;1.23;;
20731;SDS011;10527;52.124;5.196;2023-02-03T04:28:18;6.73;;;1.00;;
20731;SDS011;10527;52.124;5.196;2023-02-03T04:30:44;5.10;;;1.00;;
20731;SDS011;10527;52.124;5.196;2023-02-03T04:33:11;4.90;;;0.97;;
20731;SDS011;10527;52.124;5.196;2023-02-03T04:35:38;4.60;;;1.73;;
20731;SDS011;10527;52.124;5.196;2023-02-03T04:38:05;2.37;;;0.70;;
20731;SDS011;10527;52.124;5.196;2023-02-03T04:40:32;3.80;;;0.90;;
20731;SDS011;10527;52.124;5.196;2023-02-03T04:43:04;5.03;;;1.00;;
20731;SDS011;10527;52.124;5.196;2023-02-03T04:45:36;5.17;;;0.90;;
20731;SDS011;10527;52.124;5.196;2023-02-03T04:48:03;3.03;;;0.97;;
20731;SDS011;10527;52.124;5.196;2023-02-03T04:50:30;2.77;;;0.93;;
20731;SDS011;10527;52.124;5.196;2023-02-03T04:53:00;5.70;;;1.20;;
20731;SDS011;10527;52.124;5.196;2023-02-03T04:55:27;5.30;;;1.03;;
20731;SDS011;10527;52.124;5.196;2023-02-03T04:57:57;7.67;;;1.27;;
20731;SDS011;10527;52.124;5.196;2023-02-03T05:00:26;5.83;;;0.90;;
20731;SDS011;10527;52.124;5.196;2023-02-03T05:02:54;7.40;;;1.00;;
20731;SDS011;10527;52.124;5.196;2023-02-03T05:05:22;11.13;;;1.60;;
20731;SDS011;10527;52.124;5.196;2023-02-03T05:07:49;5.57;;;0.90;;
20731;SDS011;10527;52.124;5.196;2023-02-03T05:10:18;3.23;;;0.90;;
20731;SDS011;10527;52.124;5.196;2023-02-03T05:12:45;9.03;;;1.27;;
20731;SDS011;10527;52.124;5.196;2023-02-03T05:15:14;7.70;;;1.60;;
20731;SDS011;10527;52.124;5.196;2023-02-03T05:17:41;5.77;;;1.23;;
20731;SDS011;10527;52.124;5.196;2023-02-03T05:20:08;6.40;;;1.40;;
20731;SDS011;10527;52.124;5.196;2023-02-03T05:22:39;4.07;;;1.03;;
20731;SDS011;10527;52.124;5.196;2023-02-03T05:25:06;6.63;;;1.20;;
20731;SDS011;10527;52.124;5.196;2023-02-03T05:27:33;4.83;;;1.07;;
20731;SDS011;10527;52.124;5.196;2023-02-03T05:30:02;5.80;;;1.20;;
20731;SDS011;10527;52.124;5.196;2023-02-03T05:32:30;6.60;;;1.67;;
20731;SDS011;10527;52.124;5.196;2023-02-03T05:34:57;5.83;;;1.10;;
20731;SDS011;10527;52.124;5.196;2023-02-03T05:37:24;7.83;;;1.33;;
20731;SDS011;10527;52.124;5.196;2023-02-03T05:39:51;5.67;;;1.20;;
20731;SDS011;10527;52.124;5.196;2023-02-03T05:42:17;7.83;;;1.60;;
20731;SDS011;10527;52.124;5.196;2023-02-03T05:44:44;6.63;;;1.10;;
20731;SDS011;10527;52.124;5.196;2023-02-03T05:47:11;6.10;;;1.40;;
20731;SDS011;10527;52.124;5.196;2023-02-03T05:49:38;7.67;;;1.03;;
20731;SDS011;10527;52.124;5.196;2023-02-03T05:52:04;7.00;;;1.20;;
20731;SDS011;10527;52.124;5.196;2023-02-03T05:54:34;6.17;;;1.30;;
20731;SDS011;10527;52.124;5.196;2023-02-03T05:57:00;4.60;;;0.93;;
20731;SDS011;10527;52.124;5.196;2023-02-03T05:59:30;4.40;;;1.30;;
20731;SDS011;10527;52.124;5.196;2023-02-03T06:01:57;5.33;;;1.33;;
20731;SDS011;10527;52.124;5.196;2023-02-03T06:04:24;5.87;;;1.20;;
20731;SDS011;10527;52.124;5.196;2023-02-03T06:06:50;4.47;;;1.20;;
20731;SDS011;10527;52.124;5.196;2023-02-03T06:09:17;7.43;;;1.33;;
20731;SDS011;10527;52.124;5.196;2023-02-03T06:11:47;8.80;;;1.60;;
20731;SDS011;10527;52.124;5.196;2023-02-03T06:14:14;4.53;;;0.90;;
20731;SDS011;10527;52.124;5.196;2023-02-03T06:16:41;8.77;;;2.50;;
20731;SDS011;10527;52.124;5.196;2023-02-03T06:19:07;5.60;;;1.20;;
20731;SDS011;10527;52.124;5.196;2023-02-03T06:21:34;5.87;;;1.13;;
20731;SDS011;10527;52.124;5.196;2023-02-03T06:24:01;6.00;;;1.30;;
20731;SDS011;10527;52.124;5.196;2023-02-03T06:26:28;8.30;;;1.30;;
20731;SDS011;10527;52.124;5.196;2023-02-03T06:29:01;6.40;;;1.37;;
20731;SDS011;10527;52.124;5.196;2023-02-03T06:31:33;6.33;;;1.50;;
20731;SDS011;10527;52.124;5.196;2023-02-03T06:34:00;8.80;;;1.70;;
20731;SDS011;10527;52.124;5.196;2023-02-03T06:36:27;11.47;;;1.90;;
20731;SDS011;10527;52.124;5.196;2023-02-03T06:38:54;4.37;;;1.30;;
20731;SDS011;10527;52.124;5.196;2023-02-03T06:41:21;10.60;;;1.60;;
20731;SDS011;10527;52.124;5.196;2023-02-03T06:43:52;5.17;;;1.43;;
20731;SDS011;10527;52.124;5.196;2023-02-03T06:46:19;5.50;;;1.43;;
20731;SDS011;10527;52.124;5.196;2023-02-03T06:48:46;6.23;;;1.40;;
20731;SDS011;10527;52.124;5.196;2023-02-03T06:51:15;11.50;;;1.70;;
20731;SDS011;10527;52.124;5.196;2023-02-03T06:53:42;7.07;;;1.47;;
20731;SDS011;10527;52.124;5.196;2023-02-03T06:56:09;9.95;;;1.60;;
20731;SDS011;10527;52.124;5.196;2023-02-03T06:58:36;3.80;;;1.20;;
20731;SDS011;10527;52.124;5.196;2023-02-03T07:01:02;7.22;;;1.90;;
20731;SDS011;10527;52.124;5.196;2023-02-03T07:03:32;9.10;;;1.53;;
20731;SDS011;10527;52.124;5.196;2023-02-03T07:05:59;5.97;;;1.20;;
20731;SDS011;10527;52.124;5.196;2023-02-03T07:08:26;6.40;;;1.63;;
20731;SDS011;10527;52.124;5.196;2023-02-03T07:10:53;7.10;;;1.83;;
20731;SDS011;10527;52.124;5.196;2023-02-03T07:13:23;5.93;;;1.20;;
20731;SDS011;10527;52.124;5.196;2023-02-03T07:15:50;9.47;;;1.90;;
20731;SDS011;10527;52.124;5.196;2023-02-03T07:18:20;7.77;;;1.97;;
20731;SDS011;10527;52.124;5.196;2023-02-03T07:21:14;7.63;;;1.43;;
20731;SDS011;10527;52.124;5.196;2023-02-03T07:23:42;8.50;;;1.43;;
20731;SDS011;10527;52.124;5.196;2023-02-03T07:26:13;6.90;;;1.57;;
20731;SDS011;10527;52.124;5.196;2023-02-03T07:28:40;7.07;;;1.70;;
20731;SDS011;10527;52.124;5.196;2023-02-03T07:31:07;5.37;;;1.50;;
20731;SDS011;10527;52.124;5.196;2023-02-03T07:33:36;8.80;;;1.50;;
20731;SDS011;10527;52.124;5.196;2023-02-03T07:36:03;8.10;;;2.50;;
20731;SDS011;10527;52.124;5.196;2023-02-03T07:38:32;6.63;;;1.70;;
20731;SDS011;10527;52.124;5.196;2023-02-03T07:40:58;7.53;;;1.43;;
20731;SDS011;10527;52.124;5.196;2023-02-03T07:43:25;7.90;;;1.93;;
20731;SDS011;10527;52.124;5.196;2023-02-03T07:45:52;7.33;;;1.70;;
20731;SDS011;10527;52.124;5.196;2023-02-03T07:48:19;7.30;;;2.10;;
20731;SDS011;10527;52.124;5.196;2023-02-03T07:50:48;5.87;;;1.57;;
20731;SDS011;10527;52.124;5.196;2023-02-03T07:53:18;7.83;;;1.63;;
20731;SDS011;10527;52.124;5.196;2023-02-03T07:55:45;6.07;;;1.63;;
20731;SDS011;10527;52.124;5.196;2023-02-03T07:58:11;5.17;;;1.23;;
20731;SDS011;10527;52.124;5.196;2023-02-03T08:00:38;6.97;;;1.53;;
20731;SDS011;10527;52.124;5.196;2023-02-03T08:03:05;6.97;;;1.77;;
20731;SDS011;10527;52.124;5.196;2023-02-03T08:05:32;9.13;;;1.60;;
20731;SDS011;10527;52.124;5.196;2023-02-03T08:07:59;9.53;;;2.27;;
20731;SDS011;10527;52.124;5.196;2023-02-03T08:10:25;6.43;;;1.40;;
20731;SDS011;10527;52.124;5.196;2023-02-03T08:12:53;9.40;;;1.63;;
20731;SDS011;10527;52.124;5.196;2023-02-03T08:15:21;7.37;;;1.60;;
20731;SDS011;10527;52.124;5.196;2023-02-03T08:17:51;8.53;;;2.10;;
20731;SDS011;10527;52.124;5.196;2023-02-03T08:20:18;7.73;;;1.50;;
20731;SDS011;10527;52.124;5.196;2023-02-03T08:22:47;6.87;;;1.63;;
20731;SDS011;10527;52.124;5.196;2023-02-03T08:25:14;7.37;;;1.60;;
20731;SDS011;10527;52.124;5.196;2023-02-03T08:27:45;5.83;;;1.37;;
20731;SDS011;10527;52.124;5.196;2023-02-03T08:30:12;9.93;;;1.80;;
20731;SDS011;10527;52.124;5.196;2023-02-03T08:32:42;7.70;;;1.67;;
20731;SDS011;10527;52.124;5.196;2023-02-03T08:35:23;5.97;;;1.60;;
20731;SDS011;10527;52.124;5.196;2023-02-03T08:37:50;5.43;;;1.30;;
20731;SDS011;10527;52.124;5.196;2023-02-03T08:40:17;5.50;;;1.53;;
20731;SDS011;10527;52.124;5.196;2023-02-03T08:42:44;13.57;;;1.60;;
20731;SDS011;10527;52.124;5.196;2023-02-03T08:45:11;7.83;;;1.67;;
20731;SDS011;10527;52.124;5.196;2023-02-03T08:47:39;6.67;;;1.50;;
20731;SDS011;10527;52.124;5.196;2023-02-03T08:50:06;8.63;;;1.80;;
20731;SDS011;10527;52.124;5.196;2023-02-03T08:52:34;15.20;;;7.03;;
20731;SDS011;10527;52.124;5.196;2023-02-03T08:55:01;9.20;;;4.83;;
20731;SDS011;10527;52.124;5.196;2023-02-03T08:57:34;12.20;;;6.23;;
20731;SDS011;10527;52.124;5.196;2023-02-03T09:00:03;12.17;;;4.93;;
20731;SDS011;10527;52.124;5.196;2023-02-03T09:02:31;6.30;;;2.43;;
20731;SDS011;10527;52.124;5.196;2023-02-03T09:04:58;6.17;;;1.50;;
20731;SDS011;10527;52.124;5.196;2023-02-03T09:07:25;9.73;;;2.23;;
20731;SDS011;10527;52.124;5.196;2023-02-03T09:09:52;6.63;;;1.90;;
20731;SDS011;10527;52.124;5.196;2023-02-03T09:12:20;6.37;;;1.30;;
20731;SDS011;10527;52.124;5.196;2023-02-03T09:14:47;6.83;;;1.93;;
20731;SDS011;10527;52.124;5.196;2023-02-03T09:17:14;7.33;;;1.80;;
20731;SDS011;10527;52.124;5.196;2023-02-03T09:19:41;7.30;;;1.40;;
20731;SDS011;10527;52.124;5.196;2023-02-03T09:22:08;9.27;;;1.87;;
20731;SDS011;10527;52.124;5.196;2023-02-03T09:24:34;5.77;;;1.20;;
20731;SDS011;10527;52.124;5.196;2023-02-03T09:27:04;5.53;;;1.37;;
20731;SDS011;10527;52.124;5.196;2023-02-03T09:29:31;10.10;;;1.70;;
20731;SDS011;10527;52.124;5.196;2023-02-03T09:31:58;6.80;;;1.60;;
20731;SDS011;10527;52.124;5.196;2023-02-03T09:34:26;7.27;;;1.47;;
20731;SDS011;10527;52.124;5.196;2023-02-03T09:36:53;7.27;;;1.50;;
20731;SDS011;10527;52.124;5.196;2023-02-03T09:39:19;6.00;;;1.40;;
20731;SDS011;10527;52.124;5.196;2023-02-03T09:45:20;8.90;;;2.35;;
20731;SDS011;10527;52.124;5.196;2023-02-03T09:47:55;9.82;;;1.50;;
20731;SDS011;10527;52.124;5.196;2023-02-03T09:50:39;5.93;;;1.23;;
20731;SDS011;10527;52.124;5.196;2023-02-03T09:56:19;7.97;;;1.80;;
20731;SDS011;10527;52.124;5.196;2023-02-03T09:58:58;5.33;;;1.73;;
20731;SDS011;10527;52.124;5.196;2023-02-03T10:01:29;8.60;;;1.42;;
20731;SDS011;10527;52.124;5.196;2023-02-03T10:07:29;6.43;;;2.25;;
20731;SDS011;10527;52.124;5.196;2023-02-03T10:10:24;5.97;;;1.03;;
20731;SDS011;10527;52.124;5.196;2023-02-03T10:19:10;7.37;;;1.60;;
20731;SDS011;10527;52.124;5.196;2023-02-03T10:21:51;9.80;;;1.70;;
20731;SDS011;10527;52.124;5.196;2023-02-03T10:24:25;5.83;;;1.03;;
20731;SDS011;10527;52.124;5.196;2023-02-03T10:27:10;5.38;;;2.40;;
20731;SDS011;10527;52.124;5.196;2023-02-03T10:29:55;7.43;;;1.35;;
20731;SDS011;10527;52.124;5.196;2023-02-03T10:32:42;9.45;;;1.27;;
20731;SDS011;10527;52.124;5.196;2023-02-03T10:35:10;11.07;;;1.83;;
20731;SDS011;10527;52.124;5.196;2023-02-03T10:37:43;6.00;;;1.10;;
20731;SDS011;10527;52.124;5.196;2023-02-03T10:40:15;9.38;;;1.90;;
20731;SDS011;10527;52.124;5.196;2023-02-03T10:42:43;6.80;;;1.75;;
20731;SDS011;10527;52.124;5.196;2023-02-03T10:45:35;4.38;;;1.27;;
20731;SDS011;10527;52.124;5.196;2023-02-03T10:48:10;9.20;;;0.95;;
20731;SDS011;10527;52.124;5.196;2023-02-03T10:50:47;4.83;;;1.10;;
20731;SDS011;10527;52.124;5.196;2023-02-03T10:53:19;5.47;;;1.60;;
20731;SDS011;10527;52.124;5.196;2023-02-03T10:56:03;4.68;;;1.25;;
20731;SDS011;10527;52.124;5.196;2023-02-03T10:58:39;4.80;;;1.27;;
20731;SDS011;10527;52.124;5.196;2023-02-03T11:01:26;7.45;;;1.50;;
20731;SDS011;10527;52.124;5.196;2023-02-03T11:04:28;9.90;;;1.15;;
20731;SDS011;10527;52.124;5.196;2023-02-03T11:06:59;8.17;;;1.60;;
20731;SDS011;10527;52.124;5.196;2023-02-03T11:12:07;5.72;;;1.70;;
20731;SDS011;10527;52.124;5.196;2023-02-03T11:14:47;7.60;;;1.77;;
20731;SDS011;10527;52.124;5.196;2023-02-03T11:19:58;5.57;;;1.45;;
20731;SDS011;10527;52.124;5.196;2023-02-03T11:25:21;8.30;;;1.48;;
20731;SDS011;10527;52.124;5.196;2023-02-03T11:27:54;10.70;;;2.65;;
20731;SDS011;10527;52.124;5.196;2023-02-03T11:30:33;6.38;;;1.73;;
20731;SDS011;10527;52.124;5.196;2023-02-03T11:33:00;8.38;;;2.28;;
20731;SDS011;10527;52.124;5.196;2023-02-03T11:35:28;13.80;;;6.03;;
20731;SDS011;10527;52.124;5.196;2023-02-03T11:37:57;8.55;;;2.00;;
20731;SDS011;10527;52.124;5.196;2023-02-03T11:40:29;5.97;;;1.42;;
20731;SDS011;10527;52.124;5.196;2023-02-03T11:43:03;5.65;;;1.65;;
20731;SDS011;10527;52.124;5.196;2023-02-03T11:45:44;6.18;;;1.85;;
20731;SDS011;10527;52.124;5.196;2023-02-03T11:48:35;5.65;;;1.30;;
20731;SDS011;10527;52.124;5.196;2023-02-03T12:00:43;7.15;;;1.40;;
20731;SDS011;10527;52.124;5.196;2023-02-03T12:03:22;3.27;;;1.20;;
20731;SDS011;10527;52.124;5.196;2023-02-03T12:09:20;3.97;;;1.25;;
20731;SDS011;10527;52.124;5.196;2023-02-03T12:12:23;6.38;;;1.50;;
20731;SDS011;10527;52.124;5.196;2023-02-03T12:17:48;6.97;;;1.90;;
20731;SDS011;10527;52.124;5.196;2023-02-03T12:29:42;5.23;;;1.40;;
20731;SDS011;10527;52.124;5.196;2023-02-03T12:35:46;5.17;;;1.43;;
20731;SDS011;10527;52.124;5.196;2023-02-03T12:37:58;8.67;;;1.80;;
20731;SDS011;10527;52.124;5.196;2023-02-03T12:40:57;4.13;;;1.35;;
20731;SDS011;10527;52.124;5.196;2023-02-03T12:46:04;5.10;;;1.20;;
20731;SDS011;10527;52.124;5.196;2023-02-03T12:49:04;6.67;;;1.47;;
20731;SDS011;10527;52.124;5.196;2023-02-03T12:51:55;7.37;;;1.90;;
20731;SDS011;10527;52.124;5.196;2023-02-03T12:54:39;6.10;;;2.03;;
20731;SDS011;10527;52.124;5.196;2023-02-03T13:00:19;7.70;;;2.37;;
20731;SDS011;10527;52.124;5.196;2023-02-03T13:06:23;9.83;;;1.73;;
20731;SDS011;10527;52.124;5.196;2023-02-03T13:12:32;7.50;;;1.57;;
20731;SDS011;10527;52.124;5.196;2023-02-03T13:20:34;8.40;;;1.77;;
20731;SDS011;10527;52.124;5.196;2023-02-03T13:23:06;7.73;;;2.23;;
20731;SDS011;10527;52.124;5.196;2023-02-03T13:31:48;7.70;;;1.90;;
20731;SDS011;10527;52.124;5.196;2023-02-03T13:34:53;7.20;;;1.70;;
20731;SDS011;10527;52.124;5.196;2023-02-03T13:41:34;16.67;;;2.67;;
20731;SDS011;10527;52.124;5.196;2023-02-03T13:44:03;11.03;;;2.17;;
20731;SDS011;10527;52.124;5.196;2023-02-03T13:46:37;8.90;;;2.17;;
20731;SDS011;10527;52.124;5.196;2023-02-03T13:49:06;9.85;;;2.05;;
20731;SDS011;10527;52.124;5.196;2023-02-03T13:51:45;5.77;;;1.77;;
20731;SDS011;10527;52.124;5.196;2023-02-03T13:54:19;10.00;;;2.17;;
20731;SDS011;10527;52.124;5.196;2023-02-03T13:57:05;17.13;;;3.63;;
20731;SDS011;10527;52.124;5.196;2023-02-03T13:59:48;9.50;;;1.80;;
20731;SDS011;10527;52.124;5.196;2023-02-03T14:12:54;13.53;;;2.33;;
20731;SDS011;10527;52.124;5.196;2023-02-03T14:22:56;11.70;;;2.10;;
20731;SDS011;10527;52.124;5.196;2023-02-03T14:25:43;8.00;;;1.77;;
20731;SDS011;10527;52.124;5.196;2023-02-03T14:28:20;11.27;;;2.23;;
20731;SDS011;10527;52.124;5.196;2023-02-03T14:36:38;14.10;;;4.27;;
20731;SDS011;10527;52.124;5.196;2023-02-03T14:47:53;15.60;;;4.83;;
20731;SDS011;10527;52.124;5.196;2023-02-03T14:50:48;12.93;;;3.87;;
20731;SDS011;10527;52.124;5.196;2023-02-03T14:59:49;12.07;;;3.47;;
20731;SDS011;10527;52.124;5.196;2023-02-03T15:02:25;12.77;;;2.60;;
20731;SDS011;10527;52.124;5.196;2023-02-03T15:10:12;15.53;;;2.27;;
20731;SDS011;10527;52.124;5.196;2023-02-03T15:13:04;12.87;;;2.20;;
20731;SDS011;10527;52.124;5.196;2023-02-03T15:15:48;10.90;;;2.47;;
20731;SDS011;10527;52.124;5.196;2023-02-03T15:18:34;10.13;;;2.60;;
20731;SDS011;10527;52.124;5.196;2023-02-03T15:21:13;8.97;;;2.20;;
20731;SDS011;10527;52.124;5.196;2023-02-03T15:23:44;14.63;;;3.80;;
20731;SDS011;10527;52.124;5.196;2023-02-03T15:26:20;13.67;;;3.00;;
20731;SDS011;10527;52.124;5.196;2023-02-03T15:28:56;10.70;;;2.63;;
20731;SDS011;10527;52.124;5.196;2023-02-03T15:31:26;15.80;;;3.57;;
20731;SDS011;10527;52.124;5.196;2023-02-03T15:34:05;14.90;;;4.87;;
20731;SDS011;10527;52.124;5.196;2023-02-03T15:36:48;14.67;;;3.13;;
20731;SDS011;10527;52.124;5.196;2023-02-03T15:39:32;22.40;;;8.87;;
20731;SDS011;10527;52.124;5.196;2023-02-03T15:45:28;17.50;;;5.03;;
20731;SDS011;10527;52.124;5.196;2023-02-03T15:48:10;20.60;;;7.30;;
20731;SDS011;10527;52.124;5.196;2023-02-03T15:50:52;18.07;;;4.40;;
20731;SDS011;10527;52.124;5.196;2023-02-03T15:53:29;12.70;;;5.00;;
20731;SDS011;10527;52.124;5.196;2023-02-03T15:56:20;26.40;;;11.20;;
20731;SDS011;10527;52.124;5.196;2023-02-03T15:59:40;16.50;;;5.90;;
20731;SDS011;10527;52.124;5.196;2023-02-03T16:02:18;11.03;;;2.97;;
20731;SDS011;10527;52.124;5.196;2023-02-03T16:04:47;10.10;;;2.47;;
20731;SDS011;10527;52.124;5.196;2023-02-03T16:07:26;10.37;;;2.60;;
20731;SDS011;10527;52.124;5.196;2023-02-03T16:09:58;14.47;;;2.57;;
20731;SDS011;10527;52.124;5.196;2023-02-03T16:12:27;13.33;;;2.47;;
20731;SDS011;10527;52.124;5.196;2023-02-03T16:15:00;19.47;;;7.20;;
20731;SDS011;10527;52.124;5.196;2023-02-03T16:17:36;26.87;;;10.77;;
20731;SDS011;10527;52.124;5.196;2023-02-03T16:22:41;14.20;;;4.87;;
20731;SDS011;10527;52.124;5.196;2023-02-03T16:25:19;22.40;;;9.23;;
20731;SDS011;10527;52.124;5.196;2023-02-03T16:30:58;19.70;;;8.67;;
20731;SDS011;10527;52.124;5.196;2023-02-03T16:33:55;19.73;;;9.63;;
20731;SDS011;10527;52.124;5.196;2023-02-03T16:36:41;11.67;;;5.93;;
20731;SDS011;10527;52.124;5.196;2023-02-03T16:39:28;14.03;;;4.30;;
20731;SDS011;10527;52.124;5.196;2023-02-03T16:42:17;14.03;;;3.43;;
20731;SDS011;10527;52.124;5.196;2023-02-03T16:45:10;16.43;;;4.67;;
20731;SDS011;10527;52.124;5.196;2023-02-03T16:48:07;19.27;;;4.55;;
20731;SDS011;10527;52.124;5.196;2023-02-03T16:51:02;11.63;;;3.60;;
20731;SDS011;10527;52.124;5.196;2023-02-03T16:53:37;12.70;;;2.77;;
20731;SDS011;10527;52.124;5.196;2023-02-03T16:56:07;13.03;;;4.20;;
20731;SDS011;10527;52.124;5.196;2023-02-03T16:58:37;16.73;;;4.37;;
20731;SDS011;10527;52.124;5.196;2023-02-03T17:01:06;12.43;;;2.77;;
20731;SDS011;10527;52.124;5.196;2023-02-03T17:03:36;13.77;;;3.03;;
20731;SDS011;10527;52.124;5.196;2023-02-03T17:06:04;18.60;;;4.03;;
20731;SDS011;10527;52.124;5.196;2023-02-03T17:08:39;15.90;;;4.17;;
20731;SDS011;10527;52.124;5.196;2023-02-03T17:11:13;15.10;;;4.47;;
20731;SDS011;10527;52.124;5.196;2023-02-03T17:13:46;14.57;;;3.60;;
20731;SDS011;10527;52.124;5.196;2023-02-03T17:16:18;22.50;;;7.73;;
20731;SDS011;10527;52.124;5.196;2023-02-03T17:18:48;13.97;;;3.60;;
20731;SDS011;10527;52.124;5.196;2023-02-03T17:21:17;16.03;;;3.50;;
20731;SDS011;10527;52.124;5.196;2023-02-03T17:23:53;12.50;;;4.63;;
20731;SDS011;10527;52.124;5.196;2023-02-03T17:26:22;12.87;;;4.10;;
20731;SDS011;10527;52.124;5.196;2023-02-03T17:28:49;15.57;;;4.03;;
20731;SDS011;10527;52.124;5.196;2023-02-03T17:31:17;12.87;;;3.53;;
20731;SDS011;10527;52.124;5.196;2023-02-03T17:33:49;9.97;;;2.70;;
20731;SDS011;10527;52.124;5.196;2023-02-03T17:36:17;10.83;;;2.83;;
20731;SDS011;10527;52.124;5.196;2023-02-03T17:38:48;12.63;;;3.67;;
20731;SDS011;10527;52.124;5.196;2023-02-03T17:41:40;16.73;;;4.57;;
20731;SDS011;10527;52.124;5.196;2023-02-03T17:44:25;12.37;;;2.47;;
20731;SDS011;10527;52.124;5.196;2023-02-03T17:47:10;19.07;;;2.83;;
20731;SDS011;10527;52.124;5.196;2023-02-03T17:49:55;12.33;;;3.53;;
20731;SDS011;10527;52.124;5.196;2023-02-03T17:52:39;22.57;;;3.47;;
20731;SDS011;10527;52.124;5.196;2023-02-03T17:55:23;19.43;;;4.40;;
20731;SDS011;10527;52.124;5.196;2023-02-03T17:57:50;13.83;;;3.63;;